createdAt,value
2018-09-15T00:00:24.991Z,9.13
2018-09-15T00:02:53.539Z,8.87
2018-09-15T00:05:21.146Z,8.87
2018-09-15T00:07:49.460Z,8.58
2018-09-15T00:10:17.189Z,8.93
2018-09-15T00:12:44.807Z,8.67
2018-09-15T00:15:12.447Z,8.68
2018-09-15T00:17:41.881Z,9.90
2018-09-15T00:20:09.623Z,9.30
2018-09-15T00:22:37.299Z,9.53
2018-09-15T00:25:05.370Z,9.25
2018-09-15T00:27:32.951Z,8.27
2018-09-15T00:30:00.571Z,8.48
2018-09-15T00:32:28.207Z,9.30
2018-09-15T00:34:55.834Z,8.90
2018-09-15T00:37:23.450Z,8.63
2018-09-15T00:39:51.257Z,8.58
2018-09-15T00:42:18.854Z,8.23
2018-09-15T00:44:46.447Z,8.33
2018-09-15T00:47:14.068Z,8.70
2018-09-15T00:49:41.724Z,8.53
2018-09-15T00:52:09.323Z,8.05
2018-09-15T00:54:36.983Z,8.73
2018-09-15T00:57:04.580Z,8.30
2018-09-15T00:59:32.293Z,7.55
2018-09-15T01:01:59.933Z,8.77
2018-09-15T01:04:27.570Z,8.20
2018-09-15T01:06:55.274Z,8.13
2018-09-15T01:09:22.922Z,7.73
2018-09-15T01:11:50.608Z,8.18
2018-09-15T01:14:18.431Z,8.83
2018-09-15T01:16:46.107Z,9.00
2018-09-15T01:19:13.727Z,7.70
2018-09-15T01:21:41.357Z,8.23
2018-09-15T01:24:09.403Z,7.90
2018-09-15T01:26:37.170Z,7.87
2018-09-15T01:29:04.843Z,9.30
2018-09-15T01:31:32.638Z,8.43
2018-09-15T01:34:00.259Z,8.38
2018-09-15T01:36:28.001Z,8.67
2018-09-15T01:38:55.648Z,8.17
2018-09-15T01:41:23.319Z,7.47
2018-09-15T01:43:50.955Z,8.00
2018-09-15T01:46:18.634Z,9.70
2018-09-15T01:48:46.232Z,7.80
2018-09-15T01:51:13.874Z,7.83
2018-09-15T01:53:41.521Z,8.77
2018-09-15T01:56:11.306Z,8.63
2018-09-15T01:58:39.208Z,8.13
2018-09-15T02:01:07.020Z,7.65
2018-09-15T02:03:34.787Z,7.92
2018-09-15T02:06:10.700Z,8.33
2018-09-15T02:08:38.334Z,7.90
2018-09-15T02:11:06.064Z,7.67
2018-09-15T02:13:33.730Z,7.78
2018-09-15T02:16:01.344Z,7.92
2018-09-15T02:18:29.008Z,7.80
2018-09-15T02:20:56.697Z,7.80
2018-09-15T02:23:24.331Z,8.20
2018-09-15T02:25:52.018Z,8.38
2018-09-15T02:28:19.643Z,8.40
2018-09-15T02:30:47.230Z,7.80
2018-09-15T02:33:14.900Z,7.87
2018-09-15T02:35:42.787Z,7.83
2018-09-15T02:38:10.447Z,7.83
2018-09-15T02:40:39.147Z,8.70
2018-09-15T02:43:25.784Z,7.63
2018-09-15T02:45:53.411Z,7.70
2018-09-15T02:48:21.050Z,7.70
2018-09-15T02:50:48.644Z,7.50
2018-09-15T02:53:16.310Z,7.57
2018-09-15T02:55:43.901Z,8.00
2018-09-15T02:58:11.498Z,7.50
2018-09-15T03:00:39.155Z,7.75
2018-09-15T03:03:06.859Z,7.53
2018-09-15T03:05:34.464Z,7.50
2018-09-15T03:08:02.087Z,8.30
2018-09-15T03:10:29.795Z,8.25
2018-09-15T03:12:57.451Z,8.10
2018-09-15T03:15:25.052Z,7.77
2018-09-15T03:17:52.693Z,8.18
2018-09-15T03:20:20.319Z,8.07
2018-09-15T03:22:47.961Z,7.33
2018-09-15T03:25:15.581Z,7.90
2018-09-15T03:27:43.200Z,6.95
2018-09-15T03:30:10.838Z,8.27
2018-09-15T03:32:38.431Z,7.97
2018-09-15T03:35:06.157Z,8.90
2018-09-15T03:37:33.823Z,9.23
2018-09-15T03:40:01.420Z,8.85
2018-09-15T03:42:29.070Z,8.93
2018-09-15T03:44:56.691Z,9.37
2018-09-15T03:47:24.323Z,9.33
2018-09-15T03:49:51.916Z,9.13
2018-09-15T03:52:29.190Z,8.33
2018-09-15T03:54:56.879Z,8.70
2018-09-15T03:57:24.489Z,9.70
2018-09-15T03:59:52.127Z,9.93
2018-09-15T04:02:19.746Z,10.23
2018-09-15T04:04:47.327Z,11.83
2018-09-15T04:07:14.973Z,12.53
2018-09-15T04:09:42.624Z,12.78
2018-09-15T04:12:10.233Z,12.20
2018-09-15T04:14:37.916Z,10.17
2018-09-15T04:17:05.559Z,13.10
2018-09-15T04:19:33.235Z,13.70
2018-09-15T04:22:00.887Z,11.93
2018-09-15T04:24:28.646Z,11.33
2018-09-15T04:26:56.303Z,11.40
2018-09-15T04:29:23.945Z,11.33
2018-09-15T04:31:51.618Z,12.18
2018-09-15T04:34:19.258Z,12.73
2018-09-15T04:36:46.878Z,12.70
2018-09-15T04:39:14.512Z,12.20
2018-09-15T04:41:42.399Z,12.78
2018-09-15T04:44:10.063Z,12.40
2018-09-15T04:46:37.706Z,11.38
2018-09-15T04:49:05.689Z,10.80
2018-09-15T04:51:33.575Z,11.40
2018-09-15T04:54:01.492Z,12.37
2018-09-15T04:56:29.270Z,12.47
2018-09-15T04:58:57.162Z,12.00
2018-09-15T05:01:24.881Z,12.00
2018-09-15T05:03:52.573Z,11.33
2018-09-15T05:06:20.349Z,11.63
2018-09-15T05:08:48.050Z,12.37
2018-09-15T05:11:15.746Z,12.97
2018-09-15T05:13:43.396Z,11.68
2018-09-15T05:16:11.099Z,12.77
2018-09-15T05:18:38.779Z,11.77
2018-09-15T05:21:06.505Z,11.48
2018-09-15T05:23:34.203Z,11.53
2018-09-15T05:26:01.894Z,12.80
2018-09-15T05:28:29.598Z,10.93
2018-09-15T05:30:57.305Z,11.83
2018-09-15T05:33:25.049Z,13.00
2018-09-15T05:35:52.704Z,11.33
2018-09-15T05:38:20.354Z,11.70
2018-09-15T05:40:48.065Z,10.90
2018-09-15T05:43:15.781Z,11.20
2018-09-15T05:45:43.433Z,10.87
2018-09-15T05:48:11.155Z,11.10
2018-09-15T05:50:38.852Z,11.78
2018-09-15T05:53:06.545Z,10.80
2018-09-15T05:55:34.198Z,11.00
2018-09-15T05:58:01.872Z,11.43
2018-09-15T06:00:29.761Z,11.25
2018-09-15T06:02:57.398Z,10.75
2018-09-15T06:05:25.064Z,9.77
2018-09-15T06:07:52.780Z,10.70
2018-09-15T06:10:20.460Z,11.30
2018-09-15T06:12:48.121Z,10.83
2018-09-15T06:15:16.121Z,10.72
2018-09-15T06:17:43.787Z,10.30
2018-09-15T06:20:11.453Z,10.55
2018-09-15T06:22:39.132Z,9.93
2018-09-15T06:25:06.782Z,10.60
2018-09-15T06:27:34.678Z,10.53
2018-09-15T06:30:02.493Z,10.27
2018-09-15T06:32:30.162Z,9.93
2018-09-15T06:34:57.971Z,10.13
2018-09-15T06:37:25.653Z,10.50
2018-09-15T06:39:53.318Z,11.30
2018-09-15T06:42:21.012Z,10.13
2018-09-15T06:44:48.738Z,11.35
2018-09-15T06:47:16.413Z,11.08
2018-09-15T06:49:44.084Z,10.33
2018-09-15T06:52:12.030Z,11.73
2018-09-15T06:54:39.732Z,11.63
2018-09-15T06:57:07.451Z,11.63
2018-09-15T06:59:35.160Z,11.13
2018-09-15T07:02:02.936Z,11.73
2018-09-15T07:04:30.625Z,10.40
2018-09-15T07:06:58.360Z,10.82
2018-09-15T07:09:26.036Z,10.97
2018-09-15T07:11:53.724Z,11.43
2018-09-15T07:14:21.448Z,11.30
2018-09-15T07:16:49.163Z,10.70
2018-09-15T07:19:16.871Z,12.35
2018-09-15T07:21:44.681Z,13.67
2018-09-15T07:24:12.400Z,12.87
2018-09-15T07:26:40.073Z,12.83
2018-09-15T07:29:07.745Z,13.13
2018-09-15T07:31:35.567Z,14.83
2018-09-15T07:34:03.296Z,13.80
2018-09-15T07:36:30.974Z,14.83
2018-09-15T07:38:58.674Z,14.47
2018-09-15T07:41:26.331Z,14.87
2018-09-15T07:43:54.008Z,15.20
2018-09-15T07:46:21.698Z,14.85
2018-09-15T07:48:49.378Z,14.97
2018-09-15T07:51:17.366Z,16.10
2018-09-15T07:53:45.012Z,16.97
2018-09-15T07:56:12.802Z,15.83
2018-09-15T07:58:40.516Z,16.70
2018-09-15T08:01:08.247Z,17.47
2018-09-15T08:03:35.926Z,15.95
2018-09-15T08:06:03.694Z,16.57
2018-09-15T08:08:31.356Z,15.97
2018-09-15T08:10:59.099Z,15.13
2018-09-15T08:13:26.830Z,13.20
2018-09-15T08:15:54.519Z,14.40
2018-09-15T08:18:23.876Z,12.40
2018-09-15T08:20:52.267Z,12.17
2018-09-15T08:23:19.980Z,13.37
2018-09-15T08:25:47.861Z,12.73
2018-09-15T08:28:15.586Z,14.13
2018-09-15T08:30:43.446Z,13.10
2018-09-15T08:33:11.471Z,13.43
2018-09-15T08:35:39.392Z,14.03
2018-09-15T08:38:07.733Z,13.70
2018-09-15T08:40:35.618Z,12.10
2018-09-15T08:43:03.610Z,13.23
2018-09-15T08:45:32.582Z,13.93
2018-09-15T08:48:00.346Z,14.07
2018-09-15T08:50:28.532Z,14.20
2018-09-15T08:52:56.490Z,13.40
2018-09-15T08:55:24.548Z,13.23
2018-09-15T08:57:52.550Z,12.93
2018-09-15T09:00:20.753Z,12.73
2018-09-15T09:02:48.700Z,13.40
2018-09-15T09:05:16.653Z,12.23
2018-09-15T09:07:44.375Z,13.73
2018-09-15T09:10:12.110Z,14.40
2018-09-15T09:12:39.828Z,14.93
2018-09-15T09:15:07.613Z,15.85
2018-09-15T09:17:35.332Z,13.43
2018-09-15T09:20:03.092Z,14.00
2018-09-15T09:22:30.818Z,14.30
2018-09-15T09:24:58.483Z,14.77
2018-09-15T09:27:26.131Z,14.93
2018-09-15T09:29:53.837Z,15.70
2018-09-15T09:32:21.591Z,12.85
2018-09-15T09:34:49.245Z,13.90
2018-09-15T09:37:16.893Z,11.43
2018-09-15T09:39:44.715Z,12.00
2018-09-15T09:42:12.639Z,9.20
2018-09-15T09:44:40.322Z,8.50
2018-09-15T09:47:08.179Z,7.53
2018-09-15T09:49:35.957Z,7.50
2018-09-15T09:52:03.665Z,6.50
2018-09-15T09:54:31.371Z,6.83
2018-09-15T09:56:59.089Z,5.83
2018-09-15T09:59:26.775Z,6.17
2018-09-15T10:02:00.108Z,8.98
2018-09-15T10:04:28.730Z,9.43
2018-09-15T10:06:56.470Z,9.30
2018-09-15T10:09:24.211Z,8.33
2018-09-15T10:11:51.928Z,6.22
2018-09-15T10:14:19.676Z,5.17
2018-09-15T10:16:47.419Z,5.43
2018-09-15T10:19:15.268Z,5.27
2018-09-15T10:21:42.981Z,4.63
2018-09-15T10:24:10.624Z,4.60
2018-09-15T10:26:38.336Z,5.07
2018-09-15T10:29:06.176Z,5.07
2018-09-15T10:31:34.022Z,4.60
2018-09-15T10:34:01.709Z,4.93
2018-09-15T10:36:29.420Z,4.65
2018-09-15T10:38:57.102Z,4.35
2018-09-15T10:41:24.770Z,4.00
2018-09-15T10:43:52.509Z,3.50
2018-09-15T10:46:20.201Z,3.30
2018-09-15T10:48:47.933Z,2.90
2018-09-15T10:51:15.932Z,2.53
2018-09-15T10:53:43.602Z,3.57
2018-09-15T10:56:11.425Z,2.80
2018-09-15T10:58:39.131Z,2.65
2018-09-15T11:01:06.960Z,2.13
2018-09-15T11:03:34.614Z,2.20
2018-09-15T11:06:02.316Z,1.93
2018-09-15T11:08:29.961Z,1.45
2018-09-15T11:10:57.604Z,1.70
2018-09-15T11:13:25.438Z,1.60
2018-09-15T11:15:53.157Z,1.40
2018-09-15T11:18:20.873Z,1.47
2018-09-15T11:20:48.568Z,1.47
2018-09-15T11:23:16.233Z,1.25
2018-09-15T11:25:43.970Z,1.45
2018-09-15T11:28:11.644Z,1.50
2018-09-15T11:30:39.289Z,1.70
2018-09-15T11:33:07.174Z,1.37
2018-09-15T11:35:34.908Z,1.40
2018-09-15T11:38:02.661Z,2.50
2018-09-15T11:40:30.442Z,1.57
2018-09-15T11:42:58.158Z,1.80
2018-09-15T11:45:25.844Z,1.93
2018-09-15T11:47:53.588Z,1.93
2018-09-15T11:50:21.247Z,2.90
2018-09-15T11:52:49.063Z,2.47
2018-09-15T11:55:17.153Z,3.37
2018-09-15T11:57:44.866Z,2.98
2018-09-15T12:00:12.623Z,2.20
2018-09-15T12:02:40.305Z,1.80
2018-09-15T12:05:08.003Z,1.80
2018-09-15T12:07:35.640Z,1.70
2018-09-15T12:10:03.316Z,2.00
2018-09-15T12:12:30.995Z,1.30
2018-09-15T12:14:58.631Z,1.75
2018-09-15T12:17:26.265Z,1.50
2018-09-15T12:19:53.983Z,1.60
2018-09-15T12:22:21.633Z,1.87
2018-09-15T12:24:49.304Z,42.38
2018-09-15T12:27:17.037Z,2.47
2018-09-15T12:29:44.695Z,1.80
2018-09-15T12:32:12.686Z,1.67
2018-09-15T12:34:40.385Z,1.93
2018-09-15T12:37:08.041Z,1.47
2018-09-15T12:39:35.750Z,1.50
2018-09-15T12:42:03.507Z,1.30
2018-09-15T12:44:31.224Z,1.80
2018-09-15T12:46:58.939Z,1.33
2018-09-15T12:49:26.616Z,1.33
2018-09-15T12:51:54.329Z,1.30
2018-09-15T12:54:22.009Z,1.40
2018-09-15T12:56:49.865Z,1.43
2018-09-15T12:59:17.529Z,1.20
2018-09-15T13:01:45.275Z,1.20
2018-09-15T13:04:13.321Z,1.17
2018-09-15T13:06:41.157Z,1.10
2018-09-15T13:09:11.047Z,1.20
2018-09-15T13:11:38.703Z,1.27
2018-09-15T13:14:06.663Z,1.47
2018-09-15T13:16:34.333Z,1.17
2018-09-15T13:19:02.364Z,1.15
2018-09-15T13:21:30.533Z,1.03
2018-09-15T13:23:58.479Z,1.60
2018-09-15T13:26:26.201Z,1.40
2018-09-15T13:28:54.104Z,1.30
2018-09-15T13:31:21.771Z,1.50
2018-09-15T13:33:49.456Z,1.12
2018-09-15T13:36:17.172Z,1.27
2018-09-15T13:38:44.826Z,0.90
2018-09-15T13:41:12.482Z,1.10
2018-09-15T13:43:40.176Z,1.20
2018-09-15T13:46:07.893Z,1.10
2018-09-15T13:48:35.780Z,1.50
2018-09-15T13:51:03.516Z,1.40
2018-09-15T13:53:31.324Z,1.47
2018-09-15T13:55:59.039Z,1.25
2018-09-15T13:58:26.731Z,1.40
2018-09-15T14:00:54.390Z,1.10
2018-09-15T14:03:22.061Z,1.40
2018-09-15T14:05:49.713Z,1.80
2018-09-15T14:08:17.367Z,1.00
2018-09-15T14:10:45.129Z,1.00
2018-09-15T14:13:12.768Z,1.30
2018-09-15T14:15:40.404Z,1.10
2018-09-15T14:18:08.081Z,1.33
2018-09-15T14:20:35.828Z,1.47
2018-09-15T14:23:03.638Z,1.80
2018-09-15T14:25:31.332Z,2.10
2018-09-15T14:27:59.006Z,1.40
2018-09-15T14:30:26.720Z,2.40
2018-09-15T14:32:54.363Z,3.12
2018-09-15T14:35:22.056Z,4.90
2018-09-15T14:37:49.796Z,2.73
2018-09-15T14:40:17.465Z,2.50
2018-09-15T14:42:45.104Z,2.20
2018-09-15T14:45:12.853Z,2.23
2018-09-15T14:47:40.524Z,1.30
2018-09-15T14:50:08.255Z,5.70
2018-09-15T14:52:36.013Z,6.33
2018-09-15T14:55:03.832Z,4.53
2018-09-15T14:57:31.432Z,3.52
2018-09-15T14:59:59.133Z,2.20
2018-09-15T15:02:26.885Z,4.73
2018-09-15T15:04:54.597Z,3.83
2018-09-15T15:07:22.266Z,2.40
2018-09-15T15:09:49.929Z,3.33
2018-09-15T15:12:17.609Z,3.65
2018-09-15T15:14:45.305Z,4.37
2018-09-15T15:17:12.979Z,2.10
2018-09-15T15:19:40.725Z,1.63
2018-09-15T15:22:08.389Z,2.00
2018-09-15T15:24:36.269Z,3.80
2018-09-15T15:27:03.968Z,2.40
2018-09-15T15:29:31.720Z,2.10
2018-09-15T15:31:59.377Z,2.70
2018-09-15T15:34:27.061Z,4.03
2018-09-15T15:36:54.857Z,2.37
2018-09-15T15:39:22.567Z,1.25
2018-09-15T15:41:50.309Z,2.90
2018-09-15T15:44:18.021Z,2.20
2018-09-15T15:46:45.923Z,2.37
2018-09-15T15:49:13.667Z,2.73
2018-09-15T15:51:41.350Z,1.37
2018-09-15T15:54:09.021Z,1.27
2018-09-15T15:56:36.712Z,1.60
2018-09-15T15:59:04.451Z,2.27
2018-09-15T16:01:32.169Z,1.73
2018-09-15T16:03:59.861Z,1.10
2018-09-15T16:06:27.526Z,1.20
2018-09-15T16:08:55.254Z,1.23
2018-09-15T16:11:23.008Z,1.03
2018-09-15T16:13:50.897Z,1.17
2018-09-15T16:16:18.570Z,1.13
2018-09-15T16:18:46.283Z,1.33
2018-09-15T16:21:13.950Z,1.12
2018-09-15T16:23:41.634Z,1.30
2018-09-15T16:26:09.300Z,1.50
2018-09-15T16:28:36.969Z,1.13
2018-09-15T16:31:04.748Z,1.30
2018-09-15T16:33:32.478Z,2.97
2018-09-15T16:36:00.234Z,3.20
2018-09-15T16:38:28.216Z,21.97
2018-09-15T16:40:56.584Z,3.00
2018-09-15T16:43:24.673Z,1.57
2018-09-15T16:45:53.025Z,1.33
2018-09-15T16:48:21.076Z,1.50
2018-09-15T16:50:49.241Z,1.50
2018-09-15T16:53:16.984Z,1.87
2018-09-15T16:55:44.861Z,2.40
2018-09-15T16:58:12.910Z,3.27
2018-09-15T17:00:40.858Z,2.60
2018-09-15T17:03:08.525Z,2.13
2018-09-15T17:05:36.208Z,2.00
2018-09-15T17:08:04.269Z,2.12
2018-09-15T17:10:32.127Z,2.40
2018-09-15T17:12:59.884Z,2.53
2018-09-15T17:15:27.657Z,2.40
2018-09-15T17:17:55.355Z,2.00
2018-09-15T17:20:23.046Z,2.33
2018-09-15T17:22:50.869Z,1.70
2018-09-15T17:25:18.722Z,1.70
2018-09-15T17:27:46.390Z,1.97
2018-09-15T17:30:14.161Z,1.60
2018-09-15T17:32:41.868Z,1.53
2018-09-15T17:35:09.550Z,1.43
2018-09-15T17:37:37.273Z,1.62
2018-09-15T17:40:05.418Z,2.02
2018-09-15T17:42:33.090Z,1.87
2018-09-15T17:45:00.826Z,1.70
2018-09-15T17:47:28.528Z,1.80
2018-09-15T17:49:56.217Z,1.73
2018-09-15T17:52:23.902Z,1.70
2018-09-15T17:54:51.687Z,1.80
2018-09-15T17:57:19.407Z,1.80
2018-09-15T17:59:47.155Z,2.90
2018-09-15T18:02:14.868Z,5.20
2018-09-15T18:04:42.688Z,5.90
2018-09-15T18:07:10.380Z,4.93
2018-09-15T18:09:38.093Z,4.53
2018-09-15T18:12:05.758Z,4.30
2018-09-15T18:14:33.469Z,3.40
2018-09-15T18:17:01.180Z,6.87
2018-09-15T18:19:28.862Z,8.40
2018-09-15T18:21:56.563Z,10.10
2018-09-15T18:24:24.275Z,10.90
2018-09-15T18:26:51.944Z,10.68
2018-09-15T18:29:19.869Z,14.07
2018-09-15T18:31:47.655Z,16.75
2018-09-15T18:34:15.545Z,15.67
2018-09-15T18:36:43.444Z,15.65
2018-09-15T18:39:11.357Z,15.77
2018-09-15T18:41:39.657Z,12.95
2018-09-15T18:44:07.311Z,10.80
2018-09-15T18:46:35.337Z,12.33
2018-09-15T18:49:04.612Z,10.03
2018-09-15T18:51:32.383Z,7.90
2018-09-15T18:54:00.581Z,6.77
2018-09-15T18:56:28.481Z,5.90
2018-09-15T18:58:56.184Z,5.70
2018-09-15T19:01:23.995Z,6.00
2018-09-15T19:03:51.883Z,6.47
2018-09-15T19:06:19.651Z,8.67
2018-09-15T19:08:47.342Z,9.28
2018-09-15T19:11:15.207Z,10.08
2018-09-15T19:13:42.949Z,10.43
2018-09-15T19:16:10.874Z,8.90
2018-09-15T19:18:38.734Z,8.65
2018-09-15T19:21:06.516Z,8.23
2018-09-15T19:23:35.290Z,8.73
2018-09-15T19:26:03.085Z,45.30
2018-09-15T19:28:31.009Z,63.27
2018-09-15T19:30:58.883Z,24.13
2018-09-15T19:33:26.620Z,20.23
2018-09-15T19:35:54.339Z,16.15
2018-09-15T19:38:22.137Z,13.45
2018-09-15T19:40:49.893Z,12.55
2018-09-15T19:43:17.901Z,13.97
2018-09-15T19:45:45.724Z,14.43
2018-09-15T19:48:13.433Z,12.80
2018-09-15T19:50:41.254Z,13.27
2018-09-15T19:53:08.979Z,15.57
2018-09-15T19:55:36.617Z,16.37
2018-09-15T19:58:04.792Z,18.37
2018-09-15T20:00:32.559Z,15.83
2018-09-15T20:03:00.266Z,13.27
2018-09-15T20:05:28.126Z,13.30
2018-09-15T20:07:55.979Z,11.50
2018-09-15T20:10:33.922Z,13.13
2018-09-15T20:13:08.646Z,8.40
2018-09-15T20:15:35.193Z,7.27
2018-09-15T20:18:01.626Z,7.47
2018-09-15T20:20:28.076Z,6.43
2018-09-15T20:22:56.068Z,6.70
2018-09-15T20:25:23.864Z,6.30
2018-09-15T20:27:51.680Z,4.93
2018-09-15T20:30:19.330Z,5.10
2018-09-15T20:32:47.081Z,5.80
2018-09-15T20:35:14.896Z,6.55
2018-09-15T20:37:42.605Z,6.62
2018-09-15T20:40:10.478Z,7.20
2018-09-15T20:42:39.034Z,7.27
2018-09-15T20:45:07.174Z,6.53
2018-09-15T20:47:34.889Z,6.63
2018-09-15T20:50:02.898Z,6.27
2018-09-15T20:52:30.603Z,6.87
2018-09-15T20:54:58.414Z,7.90
2018-09-15T20:57:26.308Z,7.83
2018-09-15T20:59:53.976Z,8.77
2018-09-15T21:02:21.726Z,8.15
2018-09-15T21:04:49.398Z,8.35
2018-09-15T21:07:17.176Z,8.80
2018-09-15T21:09:45.027Z,7.47
2018-09-15T21:12:12.703Z,6.87
2018-09-15T21:14:40.548Z,5.40
2018-09-15T21:17:08.338Z,5.23
2018-09-15T21:19:36.085Z,5.93
2018-09-15T21:22:03.857Z,5.97
2018-09-15T21:24:31.588Z,6.63
2018-09-15T21:26:59.309Z,6.78
2018-09-15T21:29:27.066Z,6.65
2018-09-15T21:31:54.991Z,6.12
2018-09-15T21:34:22.695Z,5.67
2018-09-15T21:36:50.487Z,6.43
2018-09-15T21:39:18.347Z,5.77
2018-09-15T21:41:46.001Z,5.70
2018-09-15T21:44:14.378Z,5.40
2018-09-15T21:46:42.109Z,5.33
2018-09-15T21:49:09.824Z,5.62
2018-09-15T21:51:37.481Z,5.63
2018-09-15T21:54:05.246Z,6.03
2018-09-15T21:56:32.929Z,5.63
2018-09-15T21:59:00.622Z,5.50
2018-09-15T22:01:28.353Z,5.13
2018-09-15T22:04:01.601Z,4.70
2018-09-15T22:06:29.296Z,4.70
2018-09-15T22:08:56.983Z,5.13
2018-09-15T22:11:24.778Z,4.60
2018-09-15T22:13:52.442Z,4.47
2018-09-15T22:16:20.177Z,4.37
2018-09-15T22:18:47.911Z,4.00
2018-09-15T22:21:15.713Z,3.70
2018-09-15T22:23:43.366Z,3.50
2018-09-15T22:26:11.058Z,3.33
2018-09-15T22:28:38.735Z,2.93
2018-09-15T22:31:06.427Z,2.95
2018-09-15T22:33:34.117Z,3.55
2018-09-15T22:36:01.773Z,3.70
2018-09-15T22:38:29.478Z,3.87
2018-09-15T22:40:57.161Z,3.83
2018-09-15T22:43:24.887Z,3.90
2018-09-15T22:45:52.665Z,3.70
2018-09-15T22:48:20.359Z,4.37
2018-09-15T22:50:48.068Z,3.60
2018-09-15T22:53:15.729Z,3.53
2018-09-15T22:55:43.867Z,3.27
2018-09-15T22:58:11.561Z,3.20
2018-09-15T23:00:39.273Z,2.77
2018-09-15T23:03:06.975Z,2.92
2018-09-15T23:05:34.704Z,2.58
2018-09-15T23:08:02.473Z,2.30
2018-09-15T23:10:30.151Z,2.77
2018-09-15T23:12:57.851Z,2.77
2018-09-15T23:15:25.572Z,2.50
2018-09-15T23:17:53.233Z,2.50
2018-09-15T23:20:21.263Z,2.37
2018-09-15T23:22:49.098Z,2.30
2018-09-15T23:25:16.841Z,2.40
2018-09-15T23:27:44.527Z,2.43
2018-09-15T23:30:12.215Z,2.17
2018-09-15T23:32:39.882Z,2.02
2018-09-15T23:35:07.545Z,2.07
2018-09-15T23:37:35.261Z,1.90
2018-09-15T23:40:02.961Z,2.47
2018-09-15T23:42:30.711Z,2.20
2018-09-15T23:44:58.737Z,2.27
2018-09-15T23:47:26.414Z,2.53
2018-09-15T23:49:54.081Z,1.97
2018-09-15T23:52:21.774Z,2.75
2018-09-15T23:54:49.466Z,2.60
2018-09-15T23:57:17.154Z,2.50
2018-09-15T23:59:44.869Z,2.50
